Time;durP1;ratioP1;P1;durP2;ratioP2;P2;SDS_P1;SDS_P2;PMS_P1;PMS_P2;Temp;Humidity;BMP_temperature;BMP_pressure;BME280_temperature;BME280_humidity;BME280_pressure;Samples;Min_cycle;Max_cycle;Signal;HPM_P1;HPM_P2
2021/04/04 00:00:45;;;;;;;8.47;3.63;;;2.50;94.90;;;3.76;93.52;98907.44;5057992;28;20483;-81
2021/04/04 00:03:12;;;;;;;8.40;3.60;;;2.80;94.60;;;3.77;93.82;98902.16;5049325;28;20466;-81
2021/04/04 00:05:40;;;;;;;9.70;3.90;;;2.80;94.50;;;3.77;93.56;98898.75;5046824;28;20461;-81
2021/04/04 00:08:08;;;;;;;12.87;4.53;;;2.70;94.50;;;3.65;94.27;98900.53;5050719;28;20457;-80
2021/04/04 00:10:36;;;;;;;9.50;3.50;;;2.60;94.70;;;3.67;94.35;98895.25;5046496;28;20473;-81
2021/04/04 00:13:04;;;;;;;7.83;3.53;;;2.60;94.60;;;3.61;94.76;98900.94;5055301;28;20464;-81
2021/04/04 00:15:32;;;;;;;9.77;3.60;;;2.50;94.80;;;3.46;95.81;98901.19;5049657;28;20535;-81
2021/04/04 00:18:00;;;;;;;13.90;4.07;;;2.40;95.10;;;3.51;95.35;98899.06;5046581;28;20464;-81
2021/04/04 00:20:28;;;;;;;8.40;4.30;;;2.50;94.80;;;3.46;95.98;98896.03;5054303;28;20468;-81
2021/04/04 00:22:55;;;;;;;7.60;3.43;;;2.50;95.20;;;3.58;95.32;98890.81;5053711;28;20468;-80
2021/04/04 00:25:23;;;;;;;9.23;4.20;;;2.50;94.90;;;3.53;95.26;98889.44;5057922;28;20936;-80
2021/04/04 00:27:50;;;;;;;10.67;3.47;;;2.50;95.00;;;3.51;95.82;98891.28;5051402;28;20465;-80
2021/04/04 00:30:21;;;;;;;7.17;3.60;;;2.50;94.90;;;3.47;95.91;98892.47;5053192;28;20464;-81
2021/04/04 00:32:50;;;;;;;6.90;3.33;;;2.50;95.10;;;3.47;95.63;98892.47;5056201;28;20522;-81
2021/04/04 00:35:22;;;;;;;10.50;4.10;;;2.50;95.10;;;3.61;94.39;98890.59;5052610;28;20460;-81
2021/04/04 00:37:52;;;;;;;8.47;3.83;;;2.60;94.60;;;3.46;95.34;98898.59;5060735;28;20522;-80
2021/04/04 00:40:23;;;;;;;12.80;3.90;;;2.40;94.70;;;3.25;96.83;98887.38;5055819;28;20493;-80
2021/04/04 00:42:51;;;;;;;10.07;4.13;;;2.20;95.20;;;3.31;96.28;98892.06;5052838;28;20468;-81
2021/04/04 00:45:21;;;;;;;5.90;3.50;;;2.30;95.20;;;2.99;98.05;98880.81;5049317;28;20460;-80
2021/04/04 00:47:50;;;;;;;8.07;3.60;;;1.90;95.50;;;3.20;97.02;98886.91;5048988;28;21151;-80
2021/04/04 00:50:22;;;;;;;10.83;3.83;;;2.30;95.40;;;3.10;97.19;98885.16;5048234;28;20461;-81
2021/04/04 00:52:50;;;;;;;10.63;4.00;;;2.10;95.40;;;2.95;98.34;98887.19;5053208;28;20453;-80
2021/04/04 00:55:18;;;;;;;11.97;3.57;;;1.90;95.30;;;2.96;98.42;98886.22;5056731;28;20457;-81
2021/04/04 00:57:46;;;;;;;16.77;4.33;;;2.00;95.60;;;2.91;99.24;98889.19;5056344;28;20845;-80
2021/04/04 01:00:17;;;;;;;8.37;3.90;;;1.90;95.70;;;2.92;99.04;98887.41;5049975;28;20504;-80
2021/04/04 01:02:46;;;;;;;11.00;4.37;;;1.90;95.60;;;2.97;98.60;98887.88;5059618;28;20492;-80
2021/04/04 01:05:20;;;;;;;11.73;3.33;;;2.00;95.60;;;2.95;97.81;98880.22;5052411;28;20461;-81
2021/04/04 01:07:49;;;;;;;6.00;3.80;;;2.00;95.40;;;2.87;98.98;98887.78;5053742;28;20464;-80
2021/04/04 01:10:18;;;;;;;6.60;3.43;;;1.90;95.70;;;2.92;98.38;98887.41;5050639;28;20457;-80
2021/04/04 01:13:01;;;;;;;6.00;3.30;;;2.00;95.60;;;2.90;98.60;98886.69;5043721;28;20472;-80
2021/04/04 01:15:33;;;;;;;7.07;3.90;;;1.90;95.50;;;2.96;98.63;98886.22;5049716;28;20456;-80
2021/04/04 01:18:08;;;;;;;6.73;3.80;;;2.00;95.80;;;2.78;99.25;98882.47;5043650;28;20960;-80
2021/04/04 01:20:46;;;;;;;4.90;3.37;;;1.70;95.60;;;2.92;98.87;98877.88;5044703;28;20952;-80
2021/04/04 01:23:50;;;;;;;6.40;3.70;;;2.00;95.70;;;3.00;97.64;98883.28;5049415;28;20491;-80
2021/04/04 01:26:32;;;;;;;9.07;3.87;;;2.00;95.40;;;2.85;98.79;98883.63;5049793;28;20465;-80
2021/04/04 01:29:02;;;;;;;6.77;3.77;;;1.80;95.80;;;2.74;99.46;98886.25;5050351;28;20502;-80
2021/04/04 01:31:31;;;;;;;8.20;4.27;;;1.70;95.80;;;2.72;99.61;98882.94;5054773;28;20453;-80
2021/04/04 01:33:59;;;;;;;9.33;4.27;;;1.70;95.80;;;2.64;99.72;98885.31;5046664;28;20957;-81
2021/04/04 01:36:31;;;;;;;5.90;3.70;;;1.60;95.70;;;2.56;100.00;98885.06;5050094;28;20519;-80
2021/04/04 01:39:02;;;;;;;8.20;4.00;;;1.50;96.20;;;2.45;100.00;98893.59;5055589;28;20468;-81
2021/04/04 01:41:36;;;;;;;8.57;4.27;;;1.40;96.40;;;2.62;100.00;98880.25;5060386;28;20924;-80
2021/04/04 01:44:09;;;;;;;8.60;4.40;;;1.70;96.30;;;2.62;100.00;98882.81;5044141;28;20453;-80
2021/04/04 01:46:37;;;;;;;8.40;3.37;;;1.60;96.10;;;2.38;100.00;98876.94;5050688;28;20953;-80
2021/04/04 01:49:06;;;;;;;7.80;3.50;;;1.30;96.20;;;2.36;100.00;98887.34;5056698;28;20457;-80
2021/04/04 01:51:36;;;;;;;12.30;3.87;;;1.40;96.70;;;2.40;100.00;98883.63;5049805;28;20470;-80
2021/04/04 01:54:07;;;;;;;9.93;3.70;;;1.40;96.70;;;2.43;100.00;98877.44;5048543;28;20457;-80
2021/04/04 01:56:36;;;;;;;9.33;3.57;;;1.40;96.70;;;2.41;100.00;98885.28;5055407;28;21419;-80
2021/04/04 01:59:06;;;;;;;10.70;3.67;;;1.40;96.40;;;2.33;100.00;98877.28;5055959;28;20473;-80
2021/04/04 02:01:35;;;;;;;5.90;3.40;;;1.30;96.50;;;2.40;100.00;98878.47;5055996;28;20493;-80
2021/04/04 02:04:08;;;;;;;11.40;3.70;;;1.40;96.60;;;2.41;100.00;98869.78;5054355;28;20597;-80
2021/04/04 02:06:37;;;;;;;16.33;3.73;;;1.40;96.50;;;2.46;100.00;98866.88;5053588;28;20875;-80
2021/04/04 02:09:11;;;;;;;5.10;3.17;;;1.50;96.30;;;2.45;100.00;98871.19;5057941;28;20464;-81
2021/04/04 02:11:43;;;;;;;16.20;4.87;;;1.40;96.40;;;2.57;100.00;98868.63;5049341;28;20605;-80
2021/04/04 02:14:14;;;;;;;7.73;3.60;;;1.60;96.30;;;2.46;100.00;98862.50;5047812;28;20457;-80
2021/04/04 02:16:47;;;;;;;7.87;3.77;;;1.40;96.00;;;2.37;100.00;98857.22;5052575;28;20494;-80
2021/04/04 02:19:19;;;;;;;5.47;3.10;;;1.40;96.50;;;2.29;100.00;98864.72;5054006;28;20459;-81
2021/04/04 02:21:51;;;;;;;6.03;3.17;;;1.20;96.70;;;2.18;100.00;98865.53;5051374;28;20492;-80
2021/04/04 02:24:22;;;;;;;6.37;3.60;;;1.10;96.60;;;2.24;100.00;98865.06;5053043;28;20469;-80
2021/04/04 02:26:51;;;;;;;8.23;3.50;;;1.30;96.90;;;2.17;100.00;98865.63;5050532;28;20804;-80
2021/04/04 02:29:20;;;;;;;5.83;3.60;;;1.10;96.60;;;2.12;100.00;98865.16;5052303;28;20460;-80
2021/04/04 02:31:54;;;;;;;4.10;3.00;;;1.10;96.80;;;2.17;100.00;98863.88;5046579;28;21906;-81
2021/04/04 02:34:32;;;;;;;11.03;4.07;;;1.20;96.90;;;2.13;100.00;98859.88;5048280;28;20443;-80
2021/04/04 02:37:03;;;;;;;8.63;3.30;;;1.10;96.70;;;2.19;100.00;98866.31;5050006;28;20975;-80
2021/04/04 02:39:36;;;;;;;5.80;3.50;;;1.20;96.80;;;2.21;100.00;98870.47;5057561;28;20498;-80
2021/04/04 02:42:05;;;;;;;7.63;3.70;;;1.20;96.50;;;2.03;100.00;98864.91;5056799;28;20500;-80
2021/04/04 02:44:38;;;;;;;8.13;3.43;;;1.00;96.70;;;1.92;100.00;98871.78;5045801;28;20820;-80
2021/04/04 02:47:11;;;;;;;7.80;3.20;;;1.00;97.10;;;1.86;100.00;98865.31;5047861;28;20941;-80
2021/04/04 02:49:44;;;;;;;6.30;3.50;;;0.90;97.40;;;2.01;100.00;98873.69;5049610;28;20529;-80
2021/04/04 02:52:16;;;;;;;5.47;3.13;;;1.00;97.10;;;1.97;100.00;98867.13;5048664;28;20606;-80
2021/04/04 02:54:47;;;;;;;6.53;3.17;;;1.00;97.20;;;2.00;100.00;98874.63;5054492;28;20469;-80
2021/04/04 02:57:16;;;;;;;8.43;4.13;;;1.00;97.00;;;2.04;100.00;98876.06;5045657;28;20453;-80
2021/04/04 02:59:48;;;;;;;3.20;2.43;;;1.00;96.80;;;1.85;100.00;98870.56;5046729;28;20960;-81
2021/04/04 03:02:19;;;;;;;13.83;3.20;;;0.80;97.00;;;1.76;100.00;98871.25;5050111;28;21479;-80
2021/04/04 03:04:51;;;;;;;9.93;3.40;;;0.70;97.60;;;1.99;100.00;98878.13;5052765;28;20823;-80
2021/04/04 03:07:24;;;;;;;3.80;2.63;;;1.10;97.50;;;2.05;100.00;98872.50;5051183;28;20476;-80
2021/04/04 03:09:54;;;;;;;5.67;3.67;;;1.10;96.90;;;1.94;100.00;98867.34;5051879;28;20461;-80
2021/04/04 03:12:27;;;;;;;4.83;2.93;;;1.00;97.00;;;1.75;100.00;98860.13;5051156;28;20533;-80
2021/04/04 03:14:59;;;;;;;9.17;3.67;;;0.70;97.50;;;1.73;100.00;98866.34;5052834;28;20449;-80
2021/04/04 03:17:29;;;;;;;8.40;3.50;;;0.70;97.70;;;1.77;100.00;98863.41;5047800;28;20503;-80
2021/04/04 03:19:58;;;;;;;5.50;3.50;;;0.80;97.90;;;1.87;100.00;98868.72;5048582;28;20448;-80
2021/04/04 03:22:27;;;;;;;7.80;3.20;;;0.90;97.30;;;1.85;100.00;98862.84;5046932;28;20471;-80
2021/04/04 03:24:57;;;;;;;10.33;4.23;;;0.90;97.40;;;1.85;100.00;98873.16;5053766;28;20456;-80
2021/04/04 03:27:25;;;;;;;16.43;3.70;;;0.80;97.10;;;1.81;100.00;98874.31;5053783;28;20979;-80
2021/04/04 03:29:53;;;;;;;4.00;3.07;;;0.80;97.70;;;1.82;100.00;98875.97;5050173;28;20471;-80
2021/04/04 03:32:22;;;;;;;9.07;3.80;;;0.80;97.30;;;1.83;100.00;98872.47;5048965;28;20443;-80
2021/04/04 03:34:52;;;;;;;11.77;3.67;;;0.80;97.50;;;1.81;100.00;98874.31;5050175;28;20537;-80
2021/04/04 03:37:20;;;;;;;7.97;3.37;;;0.80;97.30;;;1.96;100.00;98865.47;5051379;28;20460;-80
2021/04/04 03:39:48;;;;;;;6.70;3.80;;;1.00;97.10;;;2.00;100.00;98859.16;5052124;28;20476;-80
2021/04/04 03:42:16;;;;;;;8.03;3.40;;;1.10;97.40;;;1.88;100.00;98863.44;5049253;28;20500;-80
2021/04/04 03:44:44;;;;;;;5.93;3.50;;;0.90;97.30;;;1.87;100.00;98866.97;5051541;28;20461;-80
2021/04/04 03:47:13;;;;;;;5.43;3.40;;;0.90;97.60;;;1.90;100.00;98865.91;5047474;28;20801;-80
2021/04/04 03:49:43;;;;;;;5.53;3.10;;;1.00;97.30;;;1.67;100.00;98870.16;5047824;28;20475;-80
2021/04/04 03:52:12;;;;;;;7.70;3.97;;;0.80;97.50;;;1.84;100.00;98863.81;5046445;28;20428;-80
2021/04/04 03:54:43;;;;;;;7.33;3.80;;;1.00;97.80;;;1.78;100.00;98874.53;5044238;28;20454;-80
2021/04/04 03:57:14;;;;;;;11.37;3.23;;;0.80;97.50;;;1.90;100.00;98868.50;5048184;28;20461;-80
2021/04/04 03:59:43;;;;;;;6.10;3.13;;;1.00;97.70;;;1.96;100.00;98875.78;5053481;28;20960;-80
2021/04/04 04:02:11;;;;;;;4.90;3.30;;;1.10;97.20;;;1.87;100.00;98861.81;5053997;28;20507;-80
2021/04/04 04:04:41;;;;;;;9.40;4.00;;;0.90;97.30;;;1.77;100.00;98872.91;5052054;28;20447;-80
2021/04/04 04:07:10;;;;;;;7.20;3.40;;;0.80;97.40;;;1.73;100.00;98866.34;5052719;28;20444;-81
2021/04/04 04:09:39;;;;;;;6.30;3.50;;;0.70;97.70;;;1.90;100.00;98863.34;5054126;28;20463;-81
2021/04/04 04:12:08;;;;;;;7.20;3.00;;;0.90;97.40;;;1.96;100.00;98868.03;5053912;28;20463;-80
2021/04/04 04:14:37;;;;;;;7.03;3.53;;;1.10;97.20;;;1.96;100.00;98863.72;5056734;28;20465;-80
2021/04/04 04:17:07;;;;;;;6.10;3.63;;;1.10;96.90;;;1.81;100.00;98861.41;5053149;28;20456;-81
2021/04/04 04:19:37;;;;;;;9.07;3.40;;;0.90;96.90;;;1.83;100.00;98855.25;5047643;28;20464;-80
2021/04/04 04:22:07;;;;;;;7.20;3.40;;;0.90;97.50;;;1.78;100.00;98856.50;5055847;28;20495;-80
2021/04/04 04:24:36;;;;;;;5.77;3.50;;;0.70;97.50;;;1.57;100.00;98858.03;5055399;28;20472;-81
2021/04/04 04:27:06;;;;;;;8.67;3.60;;;0.50;97.60;;;1.57;100.00;98851.13;5053754;28;20490;-80
2021/04/04 04:29:35;;;;;;;5.37;3.23;;;0.60;98.20;;;1.63;100.00;98865.34;5053502;28;20452;-80
2021/04/04 04:32:05;;;;;;;6.67;3.27;;;0.60;97.90;;;1.74;100.00;98861.03;5054064;28;20467;-81
2021/04/04 04:34:34;;;;;;;7.87;3.67;;;0.80;97.60;;;1.67;100.00;98861.59;5057534;28;20456;-80
2021/04/04 04:37:02;;;;;;;8.07;3.70;;;0.70;97.50;;;1.57;100.00;98860.63;5057926;28;20480;-80
2021/04/04 04:39:31;;;;;;;4.00;3.03;;;0.60;97.60;;;1.61;100.00;98862.06;5053914;28;20453;-80
2021/04/04 04:41:59;;;;;;;10.50;4.67;;;0.60;97.80;;;1.57;100.00;98863.19;5052027;28;20570;-80
2021/04/04 04:44:29;;;;;;;7.53;3.53;;;0.60;98.10;;;1.64;100.00;98859.25;5053187;28;20467;-81
2021/04/04 04:46:57;;;;;;;6.03;3.40;;;0.70;97.80;;;1.50;100.00;98866.22;5048529;28;20509;-80
2021/04/04 04:49:25;;;;;;;8.80;3.53;;;0.50;97.90;;;1.52;100.00;98864.38;5050493;28;20472;-80
2021/04/04 04:51:53;;;;;;;8.30;3.47;;;0.60;98.40;;;1.59;100.00;98863.94;5049737;28;20479;-80
2021/04/04 04:54:20;;;;;;;9.40;4.07;;;0.60;97.70;;;1.54;100.00;98864.25;5052769;28;20426;-80
2021/04/04 04:56:50;;;;;;;7.40;3.57;;;0.60;97.70;;;1.40;100.00;98862.66;5045187;28;20476;-80
2021/04/04 04:59:18;;;;;;;11.57;3.83;;;0.40;98.20;;;1.55;100.00;98865.06;5049362;28;20435;-80
2021/04/04 05:01:48;;;;;;;8.77;3.70;;;0.60;98.70;;;1.55;100.00;98857.34;5048361;28;20502;-80
2021/04/04 05:04:15;;;;;;;8.87;3.40;;;0.60;97.80;;;1.47;100.00;98866.44;5056045;28;20452;-80
2021/04/04 05:06:47;;;;;;;6.20;3.33;;;0.60;98.40;;;1.54;100.00;98866.81;5047668;28;20908;-80
2021/04/04 05:09:18;;;;;;;4.30;3.07;;;0.50;97.80;;;1.38;100.00;98858.56;5049212;28;20972;-81
2021/04/04 05:11:49;;;;;;;4.70;3.47;;;0.30;98.60;;;1.50;100.00;98861.06;5050519;28;20465;-80
2021/04/04 05:14:17;;;;;;;6.03;3.20;;;0.50;98.20;;;1.45;100.00;98863.16;5048280;28;20468;-80
2021/04/04 05:16:46;;;;;;;17.70;4.20;;;0.50;98.30;;;1.42;100.00;98862.56;5045503;28;20425;-80
2021/04/04 05:19:14;;;;;;;5.93;3.80;;;0.40;98.40;;;1.22;100.00;98861.38;5050655;28;20457;-80
2021/04/04 05:21:44;;;;;;;8.03;3.90;;;0.20;98.80;;;1.31;100.00;98865.06;5051478;28;20497;-80
2021/04/04 05:24:14;;;;;;;9.50;3.33;;;0.30;99.10;;;1.25;100.00;98865.53;5050629;28;21350;-80
2021/04/04 05:26:44;;;;;;;10.50;4.13;;;0.20;99.00;;;1.39;100.00;98866.16;5052758;28;20472;-80
2021/04/04 05:29:14;;;;;;;6.30;3.77;;;0.40;99.10;;;1.39;100.00;98873.91;5052188;28;20811;-80
2021/04/04 05:31:47;;;;;;;14.03;4.60;;;0.40;98.60;;;1.46;100.00;98875.09;5055173;28;20494;-80
2021/04/04 05:34:17;;;;;;;6.03;3.17;;;0.50;98.60;;;1.48;100.00;98873.25;5050322;28;20789;-80
2021/04/04 05:36:50;;;;;;;7.00;3.40;;;0.50;98.80;;;1.39;100.00;98868.75;5059901;28;20942;-80
2021/04/04 05:39:19;;;;;;;6.13;3.40;;;0.40;98.80;;;1.52;100.00;98869.53;5051311;28;20459;-80
2021/04/04 05:41:50;;;;;;;5.60;3.47;;;0.60;99.10;;;1.47;100.00;98870.78;5054790;28;20484;-80
2021/04/04 05:44:26;;;;;;;6.63;3.33;;;0.50;99.10;;;1.52;100.00;98874.69;5047411;28;20488;-80
2021/04/04 05:47:02;;;;;;;8.13;3.47;;;0.50;98.80;;;1.71;100.00;98870.75;5049327;28;20480;-80
2021/04/04 05:49:54;;;;;;;4.97;3.10;;;0.80;98.50;;;1.85;100.00;98855.09;5049513;28;20540;-80
2021/04/04 05:52:40;;;;;;;15.00;4.07;;;1.00;98.10;;;1.87;100.00;98864.41;5052437;28;21027;-80
2021/04/04 05:55:27;;;;;;;9.70;3.30;;;1.00;98.40;;;1.90;100.00;98858.19;5049101;28;20465;-80
2021/04/04 05:57:59;;;;;;;8.60;4.03;;;1.00;98.60;;;2.03;100.00;98869.25;5052951;28;20456;-80
2021/04/04 06:00:35;;;;;;;19.23;4.00;;;1.20;98.50;;;2.05;100.00;98864.78;5052941;28;20460;-81
2021/04/04 06:03:49;;;;;;;9.23;3.63;;;1.20;98.20;;;2.07;100.00;98860.34;5044891;28;20503;-80
2021/04/04 06:07:05;;;;;;;8.57;3.70;;;1.20;98.00;;;2.14;100.00;98865.88;5043537;28;20457;-78
2021/04/04 06:10:04;;;;;;;6.80;3.73;;;1.30;98.30;;;2.17;100.00;98866.47;5046998;28;20465;-78
2021/04/04 06:13:06;;;;;;;8.70;3.73;;;1.30;98.40;;;2.21;100.00;98862.72;5045749;28;20486;-78
2021/04/04 06:15:54;;;;;;;5.63;3.37;;;1.30;98.40;;;2.27;100.00;98862.25;5048152;28;20555;-78
2021/04/04 06:18:40;;;;;;;27.20;9.40;;;1.40;98.40;;;2.27;100.00;98870.00;5049887;28;20465;-78
2021/04/04 06:21:22;;;;;;;10.00;4.30;;;1.40;98.50;;;2.05;100.00;98869.94;5044007;28;20464;-78
2021/04/04 06:24:00;;;;;;;12.67;3.70;;;1.10;99.20;;;2.11;100.00;98874.66;5050542;28;20452;-78
2021/04/04 06:26:39;;;;;;;12.60;3.87;;;1.20;99.50;;;2.27;100.00;98872.56;5050062;28;20448;-78
2021/04/04 06:29:18;;;;;;;6.23;3.70;;;1.30;99.30;;;2.34;100.00;98866.03;5046070;28;20456;-78
2021/04/04 06:32:06;;;;;;;13.40;4.13;;;1.40;99.20;;;2.45;100.00;98866.03;5046437;28;20445;-78
2021/04/04 06:34:43;;;;;;;7.97;3.93;;;1.60;99.20;;;2.48;100.00;98864.97;5047829;28;20415;-78
2021/04/04 06:37:33;;;;;;;13.03;4.67;;;1.60;99.30;;;2.46;100.00;98872.81;5055075;28;20440;-78
2021/04/04 06:40:06;;;;;;;9.73;4.60;;;1.50;99.90;;;2.59;100.00;98861.59;5048666;28;20460;-78
2021/04/04 06:43:00;;;;;;;6.70;4.30;;;1.70;99.80;;;2.68;100.00;98860.88;5051782;28;21008;-78
2021/04/04 06:45:41;;;;;;;10.20;4.90;;;1.80;99.60;;;2.78;100.00;98874.72;5046248;28;20844;-78
2021/04/04 06:48:40;;;;;;;10.93;4.77;;;1.90;99.30;;;2.88;100.00;98867.94;5050146;28;20870;-78
2021/04/04 06:51:28;;;;;;;13.67;6.80;;;2.00;99.50;;;2.98;100.00;98869.69;5046816;28;20464;-80
2021/04/04 06:54:11;;;;;;;19.70;5.70;;;2.10;99.40;;;3.08;100.00;98871.53;5052543;28;20498;-78
2021/04/04 06:56:58;;;;;;;11.00;5.57;;;2.20;99.10;;;3.14;100.00;98858.97;5045432;28;21082;-78
2021/04/04 06:59:38;;;;;;;13.87;5.80;;;2.30;99.20;;;3.20;100.00;98857.66;5048862;28;20468;-78
2021/04/04 07:02:08;;;;;;;16.67;5.70;;;2.30;99.40;;;3.28;100.00;98857.88;5059630;28;20495;-80
2021/04/04 07:04:47;;;;;;;24.73;5.73;;;2.50;99.30;;;3.32;100.00;98854.13;5051295;28;20462;-78
2021/04/04 07:08:11;;;;;;;17.40;4.73;;;2.40;99.30;;;3.36;100.00;98858.09;5055381;28;20750;-79
2021/04/04 07:10:55;;;;;;;13.57;5.63;;;2.50;99.40;;;3.44;100.00;98856.53;5035879;28;20464;-80
2021/04/04 07:13:59;;;;;;;23.90;7.10;;;2.60;99.30;;;3.54;100.00;98849.69;5062355;28;20483;-78
2021/04/04 07:17:09;;;;;;;11.03;4.47;;;2.70;99.50;;;3.68;100.00;98847.78;5021196;28;20838;-79
2021/04/04 07:20:27;;;;;;;16.00;5.77;;;2.80;99.60;;;3.78;100.00;98851.25;5046016;28;20916;-78
2021/04/04 07:23:27;;;;;;;17.50;5.60;;;2.90;99.90;;;3.89;100.00;98856.34;5041476;28;20500;-78
2021/04/04 07:26:03;;;;;;;19.70;6.10;;;3.10;99.90;;;3.99;100.00;98841.75;5051819;28;20453;-78
2021/04/04 07:28:57;;;;;;;22.53;7.60;;;3.20;99.90;;;4.09;100.00;98841.81;5058662;28;20509;-79
2021/04/04 07:31:32;;;;;;;15.13;6.30;;;3.30;99.90;;;4.19;100.00;98838.34;5049438;28;20836;-79
2021/04/04 07:34:12;;;;;;;38.07;6.53;;;3.40;99.90;;;4.27;100.00;98830.72;5047944;28;20464;-78
2021/04/04 07:36:57;;;;;;;26.83;7.60;;;3.50;99.90;;;4.38;100.00;98832.41;5052603;28;20508;-78
2021/04/04 07:39:34;;;;;;;24.97;6.87;;;3.60;99.90;;;4.48;100.00;98834.09;5047792;28;20523;-78
2021/04/04 07:42:18;;;;;;;17.43;7.40;;;3.80;99.90;;;4.57;100.00;98842.88;5045347;28;20496;-79
2021/04/04 07:44:55;;;;;;;16.00;7.13;;;3.90;99.90;;;4.65;100.00;98840.44;5044948;28;20500;-78
2021/04/04 07:47:31;;;;;;;16.50;6.60;;;4.00;99.90;;;4.72;100.00;98835.59;5050547;28;20481;-78
2021/04/04 07:50:04;;;;;;;25.93;7.00;;;4.00;99.90;;;4.79;100.00;98827.16;5046233;28;20497;-78
2021/04/04 07:52:43;;;;;;;24.07;7.30;;;4.00;99.90;;;4.88;100.00;98830.72;5048721;28;20469;-78
2021/04/04 07:55:18;;;;;;;21.10;6.63;;;4.10;99.90;;;4.96;100.00;98829.09;5053871;28;20526;-78
2021/04/04 07:57:56;;;;;;;44.50;14.93;;;4.30;99.90;;;5.05;100.00;98827.50;5051101;28;20464;-78
2021/04/04 08:00:26;;;;;;;25.10;7.03;;;4.30;99.90;;;5.13;100.00;98825.06;5053558;28;20484;-78
2021/04/04 08:03:08;;;;;;;28.20;8.47;;;4.40;99.90;;;5.22;100.00;98824.25;5056244;28;20499;-79
2021/04/04 08:05:42;;;;;;;15.03;6.40;;;4.50;99.90;;;5.34;100.00;98824.97;5052908;28;21049;-79
2021/04/04 08:08:17;;;;;;;21.73;7.47;;;4.70;99.90;;;5.41;100.00;98819.13;5047343;28;20526;-79
2021/04/04 08:10:58;;;;;;;21.90;7.60;;;4.70;99.90;;;5.50;100.00;98823.47;5047742;28;20460;-78
2021/04/04 08:13:41;;;;;;;27.40;7.00;;;4.90;99.90;;;5.57;100.00;98819.38;5045964;28;20873;-79
2021/04/04 08:16:17;;;;;;;24.70;9.37;;;4.90;99.70;;;5.67;100.00;98818.56;5050778;28;20975;-79
2021/04/04 08:18:47;;;;;;;19.37;7.17;;;5.00;99.60;;;5.75;100.00;98826.47;5043746;28;21003;-78
2021/04/04 08:21:22;;;;;;;18.63;6.80;;;5.10;99.40;;;5.82;100.00;98822.38;5042921;28;20449;-79
2021/04/04 08:23:58;;;;;;;17.43;6.50;;;5.20;99.30;;;5.88;100.00;98819.25;5041214;28;20501;-78
2021/04/04 08:26:33;;;;;;;21.43;6.77;;;5.20;99.20;;;5.95;100.00;98809.97;5044950;28;20480;-78
2021/04/04 08:29:06;;;;;;;21.40;6.80;;;5.30;99.30;;;6.01;100.00;98814.59;5042821;28;21025;-79
2021/04/04 08:31:42;;;;;;;30.90;8.30;;;5.30;99.10;;;6.08;100.00;98813.06;5041715;28;20467;-78
2021/04/04 08:34:17;;;;;;;29.37;8.67;;;5.40;98.90;;;6.17;100.00;98807.06;5042555;28;20465;-79
2021/04/04 08:36:53;;;;;;;24.33;6.50;;;5.50;99.00;;;6.21;100.00;98808.44;5042890;28;22381;-78
2021/04/04 08:39:29;;;;;;;30.55;9.25;;;5.50;98.90;;;6.32;100.00;98808.22;5042789;28;20444;-79
2021/04/04 08:42:01;;;;;;;25.87;8.30;;;5.70;98.90;;;6.39;100.00;98795.50;5043028;28;20613;-79
2021/04/04 08:44:34;;;;;;;19.60;6.57;;;5.70;98.80;;;6.45;100.00;98805.34;5048292;28;20540;-79
2021/04/04 08:47:22;;;;;;;71.87;29.03;;;5.70;98.40;;;6.47;100.00;98804.22;5046761;28;20503;-77
2021/04/04 08:49:57;;;;;;;27.23;7.90;;;5.70;97.80;;;6.50;100.00;98793.56;5044963;28;20465;-80
2021/04/04 08:52:32;;;;;;;20.43;6.80;;;5.80;98.00;;;6.56;100.00;98797.34;5046299;28;20469;-80
2021/04/04 08:55:04;;;;;;;22.43;8.13;;;5.90;97.90;;;6.59;100.00;98786.69;5051282;28;20467;-80
2021/04/04 08:57:39;;;;;;;23.87;7.60;;;5.90;97.70;;;6.66;100.00;98797.31;5050605;28;20888;-80
2021/04/04 09:00:10;;;;;;;20.63;8.73;;;5.90;97.60;;;6.69;100.00;98791.84;5055727;28;20807;-79
2021/04/04 09:02:44;;;;;;;23.00;7.37;;;5.90;97.70;;;6.74;100.00;98787.84;5053444;28;21204;-80
2021/04/04 09:05:15;;;;;;;17.83;7.10;;;6.00;97.90;;;6.78;100.00;98785.75;5052484;28;20461;-80
2021/04/04 09:07:45;;;;;;;17.00;7.27;;;6.10;97.60;;;6.82;100.00;98797.50;5055889;28;20463;-78
2021/04/04 09:10:16;;;;;;;22.67;7.23;;;6.20;97.50;;;6.87;100.00;98787.50;5048864;28;20981;-80
2021/04/04 09:12:45;;;;;;;20.70;8.10;;;6.20;97.70;;;6.91;100.00;98786.22;5052748;28;20472;-80
2021/04/04 09:15:14;;;;;;;35.17;7.30;;;6.30;97.70;;;6.97;100.00;98786.50;5049700;28;20463;-80
2021/04/04 09:17:54;;;;;;;22.07;7.63;;;6.30;97.60;;;7.04;100.00;98782.34;5049479;28;20489;-81
2021/04/04 09:20:33;;;;;;;18.37;7.50;;;6.40;97.50;;;7.10;100.00;98775.72;5048666;28;20456;-82
2021/04/04 09:23:04;;;;;;;20.40;7.00;;;6.40;97.50;;;7.18;100.00;98772.41;5049255;28;20512;-81
2021/04/04 09:25:36;;;;;;;20.87;8.00;;;6.50;97.30;;;7.32;100.00;98775.31;5052745;28;20456;-80
2021/04/04 09:28:08;;;;;;;16.03;6.57;;;6.70;97.30;;;7.44;99.30;98770.69;5054074;28;20456;-80
2021/04/04 09:30:44;;;;;;;23.23;8.63;;;6.90;97.20;;;7.50;97.81;98768.31;5049577;28;20453;-82
2021/04/04 09:33:15;;;;;;;29.47;6.77;;;6.90;96.70;;;7.56;97.01;98764.31;5051623;28;20469;-82
2021/04/04 09:35:46;;;;;;;32.87;8.13;;;7.00;96.50;;;7.65;94.13;98757.34;5049967;28;20966;-81
2021/04/04 09:38:16;;;;;;;21.40;7.30;;;7.10;95.90;;;7.72;94.31;98761.81;5050968;28;20568;-81
2021/04/04 09:40:47;;;;;;;36.40;8.93;;;7.20;95.90;;;7.87;94.18;98749.06;5051016;28;20638;-81
2021/04/04 09:43:17;;;;;;;31.30;7.10;;;7.30;96.20;;;7.93;92.21;98748.47;5055752;28;20978;-81
2021/04/04 09:45:45;;;;;;;20.20;8.00;;;7.40;95.40;;;7.96;90.87;98748.16;5046246;28;20471;-81
2021/04/04 09:48:24;;;;;;;20.73;7.00;;;7.40;95.10;;;8.00;90.17;98741.66;5048646;28;20491;-81
2021/04/04 09:51:06;;;;;;;13.87;5.97;;;7.50;94.90;;;8.12;90.00;98742.25;5050985;28;20471;-82
2021/04/04 09:53:39;;;;;;;17.20;5.77;;;7.60;94.90;;;8.17;87.91;98746.00;5057017;28;20534;-86
2021/04/04 09:56:11;;;;;;;22.43;7.30;;;7.60;94.40;;;8.19;87.92;98741.44;5044631;28;20468;-80
2021/04/04 09:58:41;;;;;;;18.70;7.87;;;7.60;94.30;;;8.27;88.05;98738.88;5050068;28;20461;-82
2021/04/04 10:01:19;;;;;;;25.67;7.47;;;7.60;94.40;;;8.33;88.30;98735.69;5049921;28;20971;-82
2021/04/04 10:04:00;;;;;;;20.40;7.63;;;7.70;94.70;;;8.39;86.65;98729.88;5044390;28;20483;-81
2021/04/04 10:06:30;;;;;;;24.10;7.80;;;7.80;94.10;;;8.47;86.05;98723.84;5049047;28;20510;-82
2021/04/04 10:09:00;;;;;;;19.60;7.73;;;7.80;93.80;;;8.56;86.12;98726.34;5047677;28;20723;-82
2021/04/04 10:11:31;;;;;;;21.47;7.83;;;7.90;94.10;;;8.66;85.85;98721.00;5047879;28;20488;-84
2021/04/04 10:14:11;;;;;;;17.43;8.47;;;8.00;94.20;;;8.75;84.78;98719.22;5045424;28;20475;-83
2021/04/04 10:16:40;;;;;;;13.67;7.50;;;8.10;93.60;;;8.77;82.92;98728.53;5048579;28;20461;-82
2021/04/04 10:19:11;;;;;;;18.57;7.87;;;8.20;93.20;;;8.85;83.20;98717.34;5048258;28;20991;-83
2021/04/04 10:21:54;;;;;;;17.30;7.30;;;8.20;93.70;;;8.91;82.61;98722.72;5052283;28;20862;-81
2021/04/04 10:24:30;;;;;;;15.60;7.57;;;8.30;93.70;;;8.97;82.39;98713.44;5052573;28;20493;-80
2021/04/04 10:27:22;;;;;;;24.60;7.93;;;8.40;93.30;;;9.01;82.96;98712.13;5052263;28;20461;-82
2021/04/04 10:30:12;;;;;;;29.20;7.40;;;8.40;93.40;;;9.10;82.56;98714.59;5047511;28;20471;-82
2021/04/04 10:32:41;;;;;;;18.90;8.33;;;8.60;93.30;;;9.13;82.62;98707.44;5054866;28;20515;-82
2021/04/04 10:35:11;;;;;;;21.60;7.97;;;8.60;93.40;;;9.18;82.47;98705.13;5048412;28;21011;-82
2021/04/04 10:37:41;;;;;;;26.17;8.90;;;8.50;93.20;;;9.20;81.64;98704.00;5049200;28;20457;-82
2021/04/04 10:40:12;;;;;;;18.03;6.90;;;8.60;93.40;;;9.27;81.28;98704.16;5050345;28;20472;-82
2021/04/04 10:42:41;;;;;;;28.33;7.63;;;8.60;93.00;;;9.33;80.81;98706.97;5051759;28;20484;-81
2021/04/04 10:45:12;;;;;;;14.60;6.90;;;8.70;92.80;;;9.35;79.26;98712.00;5046411;28;20590;-82
2021/04/04 10:47:42;;;;;;;21.90;7.27;;;8.70;92.40;;;9.36;79.20;98698.81;5045035;28;20485;-83
2021/04/04 10:50:14;;;;;;;19.13;8.20;;;8.60;92.30;;;9.41;79.22;98693.88;5049611;28;20453;-82
2021/04/04 10:52:45;;;;;;;20.33;7.73;;;8.70;92.40;;;9.43;78.86;98694.56;5051266;28;20863;-82
2021/04/04 10:55:14;;;;;;;23.00;8.27;;;8.70;92.50;;;9.52;79.06;98688.34;5048846;28;20464;-81